createdAt,value
2018-08-07T00:00:41.273Z,0
2018-08-07T00:01:41.274Z,0
2018-08-07T00:02:41.266Z,0
2018-08-07T00:03:41.007Z,0
2018-08-07T00:04:41.255Z,0
2018-08-07T00:05:41.004Z,0
2018-08-07T00:06:41.247Z,0
2018-08-07T00:07:41.254Z,0
2018-08-07T00:08:41.241Z,0
2018-08-07T00:09:41.241Z,0
2018-08-07T00:10:40.982Z,0
2018-08-07T00:11:40.730Z,0
2018-08-07T00:12:41.230Z,0
2018-08-07T00:13:41.226Z,0
2018-08-07T00:14:40.717Z,0
2018-08-07T00:15:41.215Z,0
2018-08-07T00:16:41.214Z,0
2018-08-07T00:17:41.235Z,0
2018-08-07T00:18:41.201Z,0
2018-08-07T00:19:41.203Z,0
2018-08-07T00:20:41.211Z,0
2018-08-07T00:21:41.195Z,0
2018-08-07T00:22:40.940Z,0
2018-08-07T00:23:40.936Z,0
2018-08-07T00:24:40.956Z,0
2018-08-07T00:25:40.926Z,0
2018-08-07T00:26:40.931Z,0
2018-08-07T00:27:40.670Z,0
2018-08-07T00:28:41.166Z,0
2018-08-07T00:29:40.914Z,0
2018-08-07T00:30:41.158Z,0
2018-08-07T00:31:40.904Z,0
2018-08-07T00:32:41.151Z,0
2018-08-07T00:33:41.151Z,0
2018-08-07T00:34:41.144Z,0
2018-08-07T00:35:41.142Z,0
2018-08-07T00:36:40.885Z,0
2018-08-07T00:37:40.679Z,0
2018-08-07T00:38:41.132Z,0
2018-08-07T00:39:41.125Z,0
2018-08-07T00:40:41.122Z,0
2018-08-07T00:41:40.872Z,0
2018-08-07T00:42:41.113Z,0
2018-08-07T00:43:40.866Z,0
2018-08-07T00:44:41.114Z,0
2018-08-07T00:45:41.103Z,0
2018-08-07T00:46:41.102Z,0
2018-08-07T00:47:41.094Z,0
2018-08-07T00:48:41.096Z,0
2018-08-07T00:49:41.085Z,0
2018-08-07T00:50:41.085Z,0
2018-08-07T00:51:40.825Z,0
2018-08-07T00:52:40.821Z,0
2018-08-07T00:53:41.070Z,0
2018-08-07T00:54:41.067Z,0
2018-08-07T00:55:40.812Z,0
2018-08-07T00:56:41.060Z,0
2018-08-07T00:57:41.053Z,0
2018-08-07T00:58:40.552Z,0
2018-08-07T00:59:41.055Z,0
2018-08-07T01:00:41.045Z,0
2018-08-07T01:01:40.787Z,0
2018-08-07T01:02:40.784Z,0
2018-08-07T01:03:41.029Z,0
2018-08-07T01:04:41.035Z,0
2018-08-07T01:06:41.022Z,0
2018-08-07T01:07:40.763Z,0
2018-08-07T01:08:41.013Z,0
2018-08-07T01:09:40.753Z,0
2018-08-07T01:10:41.005Z,0
2018-08-07T01:11:41.003Z,0
2018-08-07T01:12:40.997Z,0
2018-08-07T01:13:40.988Z,0
2018-08-07T01:14:42.262Z,0
2018-08-07T01:15:40.989Z,0
2018-08-07T01:16:40.975Z,0
2018-08-07T01:17:40.981Z,0
2018-08-07T01:18:42.247Z,0
2018-08-07T01:19:40.713Z,0
2018-08-07T01:20:43.511Z,0
2018-08-07T01:21:40.708Z,0
2018-08-07T01:22:40.951Z,0
2018-08-07T01:23:40.693Z,0
2018-08-07T01:24:40.942Z,0
2018-08-07T01:25:40.940Z,0
2018-08-07T01:26:40.984Z,0
2018-08-07T01:27:40.685Z,0
2018-08-07T01:28:40.925Z,0
2018-08-07T01:29:40.922Z,0
2018-08-07T01:30:40.921Z,0
2018-08-07T01:32:41.073Z,0
2018-08-07T01:33:40.907Z,0
2018-08-07T01:34:44.260Z,0
2018-08-07T01:35:40.900Z,0
2018-08-07T01:36:40.898Z,0
2018-08-07T01:37:40.892Z,0
2018-08-07T01:38:40.888Z,0
2018-08-07T01:39:40.883Z,0
2018-08-07T01:40:40.878Z,0
2018-08-07T01:41:40.617Z,0
2018-08-07T01:42:40.863Z,0
2018-08-07T01:43:40.612Z,0
2018-08-07T01:44:40.609Z,0
2018-08-07T01:45:40.603Z,0
2018-08-07T01:46:40.601Z,0
2018-08-07T01:47:40.595Z,0
2018-08-07T01:48:40.839Z,0
2018-08-07T01:49:40.332Z,0
2018-08-07T01:50:40.833Z,0
2018-08-07T01:51:40.832Z,0
2018-08-07T01:52:40.822Z,0
2018-08-07T01:53:40.566Z,0
2018-08-07T01:54:40.813Z,0
2018-08-07T01:55:40.810Z,0
2018-08-07T01:56:40.554Z,0
2018-08-07T01:57:40.801Z,0
2018-08-07T01:58:40.795Z,0
2018-08-07T01:59:40.840Z,0
2018-08-07T02:00:40.794Z,0
2018-08-07T02:01:40.788Z,0
2018-08-07T02:02:40.527Z,0
2018-08-07T02:03:40.271Z,0
2018-08-07T02:04:40.519Z,0
2018-08-07T02:05:40.765Z,0
2018-08-07T02:06:40.509Z,0
2018-08-07T02:07:40.760Z,0
2018-08-07T02:08:40.752Z,0
2018-08-07T02:09:40.748Z,0
2018-08-07T02:10:40.493Z,0
2018-08-07T02:11:40.489Z,0
2018-08-07T02:12:40.736Z,0
2018-08-07T02:13:40.481Z,0
2018-08-07T02:14:40.726Z,0
2018-08-07T02:15:40.724Z,0
2018-08-07T02:16:40.716Z,0
2018-08-07T02:17:40.460Z,0
2018-08-07T02:18:40.714Z,0
2018-08-07T02:19:40.451Z,0
2018-08-07T02:20:40.702Z,0
2018-08-07T02:21:40.697Z,0
2018-08-07T02:22:40.691Z,0
2018-08-07T02:23:40.434Z,0
2018-08-07T02:24:40.683Z,0
2018-08-07T02:25:40.425Z,0
2018-08-07T02:26:40.676Z,0
2018-08-07T02:27:40.672Z,0
2018-08-07T02:28:40.159Z,0
2018-08-07T02:29:40.658Z,0
2018-08-07T02:30:40.658Z,0
2018-08-07T02:31:40.402Z,0
2018-08-07T02:32:40.650Z,0
2018-08-07T02:33:40.390Z,0
2018-08-07T02:34:40.804Z,0
2018-08-07T02:35:41.002Z,0
2018-08-07T02:36:40.636Z,0
2018-08-07T02:37:40.632Z,0
2018-08-07T02:38:40.388Z,0
2018-08-07T02:39:40.617Z,0
2018-08-07T02:40:40.616Z,0
2018-08-07T02:41:40.609Z,0
2018-08-07T02:42:40.600Z,0
2018-08-07T02:43:40.603Z,0
2018-08-07T02:44:40.603Z,0
2018-08-07T02:45:40.342Z,0
2018-08-07T02:46:40.600Z,0
2018-08-07T02:47:40.590Z,0
2018-08-07T02:48:40.335Z,0
2018-08-07T02:49:40.316Z,0
2018-08-07T02:50:40.324Z,0
2018-08-07T02:51:40.571Z,0
2018-08-07T02:52:40.557Z,0
2018-08-07T02:53:40.550Z,4
2018-08-07T02:54:40.563Z,4
2018-08-07T02:55:40.540Z,4
2018-08-07T02:56:40.296Z,0
2018-08-07T02:57:40.531Z,4
2018-08-07T02:58:40.280Z,4
2018-08-07T02:59:40.524Z,4
2018-08-07T03:00:40.274Z,4
2018-08-07T03:01:40.518Z,4
2018-08-07T03:02:40.509Z,8
2018-08-07T03:03:40.509Z,4
2018-08-07T03:04:40.248Z,8
2018-08-07T03:05:40.507Z,8
2018-08-07T03:06:40.238Z,12
2018-08-07T03:07:40.493Z,12
2018-08-07T03:08:40.245Z,16
2018-08-07T03:09:40.484Z,16
2018-08-07T03:10:40.471Z,16
2018-08-07T03:11:40.472Z,24
2018-08-07T03:12:40.474Z,24
2018-08-07T03:13:40.210Z,28
2018-08-07T03:14:40.459Z,36
2018-08-07T03:15:40.455Z,36
2018-08-07T03:16:40.445Z,40
2018-08-07T03:17:40.261Z,48
2018-08-07T03:18:40.439Z,56
2018-08-07T03:19:39.929Z,60
2018-08-07T03:20:40.434Z,68
2018-08-07T03:21:40.422Z,76
2018-08-07T03:22:40.440Z,88
2018-08-07T03:23:40.428Z,96
2018-08-07T03:24:40.155Z,108
2018-08-07T03:25:40.428Z,120
2018-08-07T03:26:40.153Z,132
2018-08-07T03:27:40.404Z,148
2018-08-07T03:28:39.887Z,164
2018-08-07T03:29:41.408Z,180
2018-08-07T03:30:40.387Z,200
2018-08-07T03:31:39.884Z,220
2018-08-07T03:32:40.375Z,240
2018-08-07T03:33:40.377Z,264
2018-08-07T03:34:40.370Z,288
2018-08-07T03:35:40.386Z,316
2018-08-07T03:36:40.352Z,344
2018-08-07T03:37:40.354Z,376
2018-08-07T03:38:40.095Z,404
2018-08-07T03:39:40.340Z,436
2018-08-07T03:40:40.084Z,472
2018-08-07T03:41:40.332Z,504
2018-08-07T03:42:40.075Z,544
2018-08-07T03:43:39.818Z,584
2018-08-07T03:44:40.321Z,620
2018-08-07T03:45:40.061Z,656
2018-08-07T03:46:40.065Z,692
2018-08-07T03:47:40.308Z,736
2018-08-07T03:48:40.299Z,780
2018-08-07T03:49:40.297Z,832
2018-08-07T03:50:40.295Z,876
2018-08-07T03:51:40.037Z,920
2018-08-07T03:52:40.287Z,964
2018-08-07T03:53:40.028Z,1004
2018-08-07T03:54:40.276Z,1076
2018-08-07T03:55:40.025Z,1128
2018-08-07T03:56:40.014Z,1176
2018-08-07T03:57:40.260Z,1220
2018-08-07T03:58:40.261Z,1264
2018-08-07T03:59:40.255Z,1308
2018-08-07T04:00:40.255Z,1356
2018-08-07T04:01:40.243Z,1404
2018-08-07T04:02:40.247Z,1448
2018-08-07T04:03:40.241Z,1500
2018-08-07T04:04:39.978Z,1548
2018-08-07T04:05:40.225Z,1552
2018-08-07T04:06:39.974Z,1600
2018-08-07T04:07:40.219Z,1652
2018-08-07T04:08:40.219Z,1836
2018-08-07T04:09:40.307Z,2264
2018-08-07T04:10:40.208Z,2564
2018-08-07T04:11:40.527Z,2772
2018-08-07T04:12:40.206Z,2916
2018-08-07T04:13:39.948Z,3016
2018-08-07T04:14:39.946Z,3140
2018-08-07T04:15:40.200Z,3364
2018-08-07T04:16:40.180Z,3484
2018-08-07T04:17:39.926Z,3544
2018-08-07T04:18:40.176Z,3700
2018-08-07T04:19:40.171Z,3876
2018-08-07T04:20:40.168Z,4084
2018-08-07T04:21:39.663Z,4304
2018-08-07T04:22:39.913Z,4532
2018-08-07T04:23:40.160Z,4840
2018-08-07T04:24:40.159Z,4956
2018-08-07T04:25:40.161Z,5020
2018-08-07T04:26:39.900Z,5108
2018-08-07T04:27:40.156Z,5340
2018-08-07T04:28:40.151Z,5432
2018-08-07T04:29:39.896Z,5672
2018-08-07T04:30:39.896Z,5764
2018-08-07T04:31:39.645Z,5832
2018-08-07T04:32:40.152Z,5988
2018-08-07T04:33:40.141Z,6104
2018-08-07T04:34:39.892Z,6524
2018-08-07T04:35:40.144Z,6780
2018-08-07T04:36:39.892Z,7120
2018-08-07T04:37:40.139Z,7104
2018-08-07T04:38:39.893Z,7276
2018-08-07T04:39:40.147Z,7392
2018-08-07T04:40:40.162Z,7504
2018-08-07T04:41:40.142Z,7056
2018-08-07T04:42:40.152Z,7544
2018-08-07T04:43:39.895Z,8484
2018-08-07T04:44:39.896Z,8148
2018-08-07T04:45:39.899Z,9008
2018-08-07T04:46:39.903Z,9368
2018-08-07T04:47:40.168Z,9240
2018-08-07T04:48:39.907Z,9604
2018-08-07T04:49:40.180Z,9852
2018-08-07T04:50:40.178Z,10056
2018-08-07T04:51:40.176Z,9644
2018-08-07T04:52:40.178Z,9620
2018-08-07T04:53:40.178Z,9964
2018-08-07T04:54:40.189Z,9700
2018-08-07T04:55:39.934Z,9448
2018-08-07T04:56:40.193Z,9700
2018-08-07T04:57:40.524Z,10480
2018-08-07T04:58:40.222Z,11052
2018-08-07T04:59:40.206Z,11016
2018-08-07T05:00:40.219Z,12008
2018-08-07T05:01:40.224Z,11928
2018-08-07T05:02:39.974Z,11424
2018-08-07T05:03:40.235Z,12160
2018-08-07T05:04:40.237Z,12220
2018-08-07T05:05:39.993Z,12200
2018-08-07T05:06:39.999Z,13332
2018-08-07T05:07:40.256Z,13632
2018-08-07T05:08:40.266Z,14080
2018-08-07T05:09:40.271Z,14784
2018-08-07T05:10:40.764Z,15424
2018-08-07T05:11:40.044Z,15328
2018-08-07T05:12:40.319Z,17216
2018-08-07T05:13:39.802Z,19616
2018-08-07T05:14:40.312Z,19456
2018-08-07T05:15:39.816Z,17152
2018-08-07T05:16:40.335Z,18656
2018-08-07T05:17:40.338Z,20224
2018-08-07T05:18:40.107Z,19360
2018-08-07T05:19:40.354Z,20128
2018-08-07T05:20:40.112Z,20448
2018-08-07T05:21:40.373Z,19584
2018-08-07T05:22:40.343Z,19200
2018-08-07T05:23:40.392Z,19360
2018-08-07T05:24:40.398Z,19904
2018-08-07T05:25:40.408Z,20960
2018-08-07T05:26:40.422Z,19360
2018-08-07T05:27:40.173Z,18624
2018-08-07T05:28:40.320Z,21280
2018-08-07T05:29:40.256Z,21408
2018-08-07T05:30:40.457Z,19968
2018-08-07T05:31:40.216Z,21728
2018-08-07T05:32:40.477Z,21792
2018-08-07T05:33:40.485Z,21120
2018-08-07T05:34:40.498Z,23680
2018-08-07T05:35:40.253Z,24160
2018-08-07T05:36:40.265Z,21472
2018-08-07T05:37:40.272Z,21344
2018-08-07T05:38:40.533Z,23776
2018-08-07T05:39:39.788Z,24640
2018-08-07T05:40:40.837Z,24832
2018-08-07T05:41:40.607Z,24928
2018-08-07T05:42:40.591Z,25024
2018-08-07T05:43:40.083Z,25440
2018-08-07T05:44:40.605Z,26848
2018-08-07T05:45:40.354Z,28928
2018-08-07T05:46:40.621Z,29024
2018-08-07T05:47:40.626Z,26912
2018-08-07T05:48:40.636Z,25984
2018-08-07T05:49:40.648Z,29600
2018-08-07T05:50:41.597Z,33696
2018-08-07T05:51:40.898Z,33280
2018-08-07T05:52:40.475Z,30688
2018-08-07T05:53:40.694Z,29312
2018-08-07T05:54:40.706Z,30784
2018-08-07T05:55:40.466Z,33312
2018-08-07T05:56:41.165Z,34080
2018-08-07T05:57:40.740Z,32576
2018-08-07T05:58:40.844Z,29152
2018-08-07T05:59:40.272Z,28992
2018-08-07T06:00:40.535Z,34016
2018-08-07T06:01:40.534Z,36352
2018-08-07T06:02:40.809Z,33056
2018-08-07T06:03:40.810Z,30592
2018-08-07T06:04:40.827Z,33376
2018-08-07T06:05:40.328Z,37760
2018-08-07T06:06:40.850Z,38016
2018-08-07T06:07:53.591Z,34912
2018-08-07T06:08:40.623Z,33728
2018-08-07T06:09:40.884Z,33920
2018-08-07T06:10:40.685Z,35872
2018-08-07T06:11:40.909Z,36224
2018-08-07T06:12:40.678Z,36512
2018-08-07T06:13:40.680Z,38912
2018-08-07T06:14:40.955Z,41792
2018-08-07T06:15:40.704Z,40096
2018-08-07T06:16:40.978Z,34720
2018-08-07T06:17:40.985Z,32096
2018-08-07T06:18:40.746Z,33728
2018-08-07T06:19:40.764Z,35904
2018-08-07T06:20:41.021Z,36448
2018-08-07T06:21:41.035Z,35136
2018-08-07T06:22:41.047Z,33664
2018-08-07T06:23:41.061Z,31872
2018-08-07T06:24:41.077Z,30336
2018-08-07T06:25:41.333Z,30592
2018-08-07T06:26:40.854Z,31264
2018-08-07T06:27:41.123Z,31328
2018-08-07T06:28:41.109Z,31296
2018-08-07T06:29:41.265Z,30688
2018-08-07T06:30:53.638Z,30144
2018-08-07T06:31:41.066Z,30752
2018-08-07T06:32:42.219Z,32256
2018-08-07T06:33:40.949Z,33120
2018-08-07T06:34:41.217Z,34176
2018-08-07T06:35:41.227Z,35392
2018-08-07T06:36:40.992Z,37568
2018-08-07T06:37:41.076Z,39296
2018-08-07T06:38:41.020Z,42848
2018-08-07T06:39:41.036Z,47296
2018-08-07T06:40:40.798Z,51520
2018-08-07T06:41:41.327Z,54176
2018-08-07T06:42:41.331Z,52192
2018-08-07T06:43:41.352Z,46976
2018-08-07T06:44:41.112Z,43168
2018-08-07T06:45:41.125Z,48544
2018-08-07T06:46:41.396Z,60160
2018-08-07T06:47:41.408Z,75264
2018-08-07T06:48:41.178Z,83328
2018-08-07T06:49:41.439Z,79264
2018-08-07T06:50:41.460Z,79072
2018-08-07T06:51:41.471Z,93120
2018-08-07T06:52:41.232Z,102816
2018-08-07T06:53:40.999Z,102560
2018-08-07T06:54:41.526Z,96096
2018-08-07T06:55:41.538Z,92416
2018-08-07T06:56:41.553Z,95328
2018-08-07T06:57:41.566Z,94144
2018-08-07T06:58:41.338Z,84288
2018-08-07T06:59:41.604Z,74016
2018-08-07T07:00:41.114Z,69824
2018-08-07T07:01:41.381Z,66496
2018-08-07T07:02:41.851Z,62880
2018-08-07T07:03:41.417Z,58656
2018-08-07T07:04:41.688Z,56192
2018-08-07T07:05:41.717Z,59040
2018-08-07T07:06:41.719Z,64896
2018-08-07T07:07:41.736Z,66240
2018-08-07T07:08:41.499Z,63712
2018-08-07T07:09:42.147Z,61184
2018-08-07T07:10:41.539Z,60832
2018-08-07T07:11:41.802Z,59552
2018-08-07T07:12:41.570Z,57344
2018-08-07T07:13:41.840Z,59008
2018-08-07T07:14:41.861Z,58816
2018-08-07T07:15:41.626Z,55456
2018-08-07T07:16:41.643Z,53504
2018-08-07T07:17:41.656Z,54144
2018-08-07T07:18:41.933Z,54048
2018-08-07T07:19:41.947Z,53696
2018-08-07T07:20:41.980Z,53568
2018-08-07T07:21:41.981Z,53728
2018-08-07T07:22:41.745Z,53312
2018-08-07T07:23:42.022Z,52096
2018-08-07T07:24:42.036Z,52128
2018-08-07T07:25:41.795Z,50880
2018-08-07T07:26:41.945Z,44736
2018-08-07T07:27:41.587Z,39872
2018-08-07T07:28:42.104Z,38784
2018-08-07T07:29:41.867Z,39968
2018-08-07T07:30:41.885Z,39680
2018-08-07T07:31:42.168Z,38368
2018-08-07T07:32:42.170Z,40192
2018-08-07T07:33:41.963Z,44960
2018-08-07T07:34:42.405Z,48320
2018-08-07T07:35:41.986Z,50592
2018-08-07T07:36:41.991Z,52864
2018-08-07T07:37:42.258Z,55136
2018-08-07T07:38:42.282Z,58304
2018-08-07T07:39:42.301Z,60704
2018-08-07T07:40:42.202Z,60352
2018-08-07T07:41:42.335Z,57856
2018-08-07T07:42:42.355Z,58240
2018-08-07T07:43:42.117Z,59776
2018-08-07T07:44:42.389Z,56608
2018-08-07T07:45:42.404Z,49632
2018-08-07T07:46:42.773Z,49856
2018-08-07T07:47:42.195Z,54400
2018-08-07T07:48:42.207Z,59264
2018-08-07T07:49:42.487Z,61344
2018-08-07T07:50:42.499Z,64128
2018-08-07T07:51:42.013Z,67520
2018-08-07T07:52:42.547Z,66880
2018-08-07T07:53:42.554Z,66944
2018-08-07T07:55:42.598Z,69920
2018-08-07T07:57:43.904Z,73504
2018-08-07T07:58:44.063Z,74784
2018-08-07T07:59:42.666Z,86496
2018-08-07T08:00:42.682Z,99520
2018-08-07T08:01:43.729Z,101120
2018-08-07T08:02:46.084Z,96384
2018-08-07T08:27:43.201Z,76352
2018-08-07T08:28:43.219Z,75552
2018-08-07T08:29:46.006Z,78752
2018-08-07T08:30:44.512Z,78816
2018-08-07T08:31:46.182Z,70080
2018-08-07T08:32:43.344Z,61696
2018-08-07T08:33:43.355Z,63360
2018-08-07T08:34:43.327Z,73312
2018-08-07T08:35:43.171Z,79008
2018-08-07T08:36:43.362Z,75488
2018-08-07T08:37:43.380Z,72224
2018-08-07T08:38:43.396Z,72128
2018-08-07T08:39:43.412Z,74496
2018-08-07T08:40:43.441Z,72352
2018-08-07T08:41:43.206Z,68896
2018-08-07T08:42:43.476Z,66880
2018-08-07T08:43:43.486Z,65600
2018-08-07T08:44:43.501Z,60192
2018-08-07T08:45:43.263Z,57504
2018-08-07T08:46:43.282Z,51136
2018-08-07T08:47:43.296Z,24736
2018-08-07T08:48:44.055Z,7524
2018-08-07T08:49:43.580Z,7200
2018-08-07T08:50:43.353Z,7104
2018-08-07T08:51:43.620Z,7092
2018-08-07T08:52:43.377Z,7068
2018-08-07T08:53:43.642Z,7044
2018-08-07T08:54:43.402Z,7028
2018-08-07T08:55:43.675Z,7016
2018-08-07T08:56:43.430Z,7012
2018-08-07T08:57:43.694Z,7016
2018-08-07T08:58:43.710Z,7028
2018-08-07T08:59:43.214Z,7032
2018-08-07T09:00:43.816Z,7032
2018-08-07T09:01:43.746Z,7020
2018-08-07T09:02:43.505Z,7004
2018-08-07T09:03:43.517Z,6996
2018-08-07T09:04:43.772Z,6984
2018-08-07T09:05:43.782Z,6964
2018-08-07T09:06:43.794Z,6944
2018-08-07T09:07:43.555Z,6940
2018-08-07T09:08:43.840Z,6948
2018-08-07T09:09:43.571Z,6948
2018-08-07T09:10:44.776Z,6944
2018-08-07T09:11:43.872Z,6932
2018-08-07T09:12:43.601Z,6920
2018-08-07T09:13:43.606Z,6916
2018-08-07T09:14:43.923Z,6908
2018-08-07T09:15:43.873Z,6916
2018-08-07T09:16:43.891Z,6920
2018-08-07T09:17:43.890Z,6924
2018-08-07T09:18:43.395Z,6924
2018-08-07T09:19:43.814Z,6912
2018-08-07T09:20:43.948Z,6904
2018-08-07T09:21:46.218Z,6896
2018-08-07T09:22:43.967Z,6892
2018-08-07T09:23:43.707Z,6892
2018-08-07T09:24:43.951Z,6880
2018-08-07T09:25:44.674Z,6872
2018-08-07T09:26:43.972Z,6864
2018-08-07T09:27:43.475Z,6864
2018-08-07T09:28:43.985Z,6860
2018-08-07T09:29:43.979Z,6848
2018-08-07T09:30:44.001Z,6836
2018-08-07T09:31:43.544Z,6824
2018-08-07T09:32:44.018Z,6816
2018-08-07T09:33:44.005Z,6812
2018-08-07T09:34:44.024Z,6816
2018-08-07T09:35:43.265Z,6816
2018-08-07T09:36:44.036Z,6816
2018-08-07T09:37:44.037Z,6808
2018-08-07T09:38:43.788Z,6796
2018-08-07T09:39:44.109Z,6784
2018-08-07T09:40:43.559Z,6776
2018-08-07T09:41:43.810Z,6760
2018-08-07T09:42:43.814Z,6756
2018-08-07T09:43:44.075Z,6740
2018-08-07T09:44:44.082Z,6732
2018-08-07T09:45:44.083Z,6720
2018-08-07T09:46:44.463Z,6700
2018-08-07T09:47:43.846Z,6672
2018-08-07T09:48:44.102Z,6648
2018-08-07T09:49:43.988Z,6624
2018-08-07T09:50:43.865Z,6600
2018-08-07T09:51:43.870Z,6572
2018-08-07T09:52:43.882Z,6548
2018-08-07T09:53:43.884Z,6524
2018-08-07T09:54:44.141Z,6496
2018-08-07T09:55:44.144Z,6472
2018-08-07T09:56:43.902Z,6456
2018-08-07T09:57:43.654Z,6432
2018-08-07T09:58:43.827Z,6408
2018-08-07T09:59:44.169Z,6376
2018-08-07T10:00:43.927Z,6344
2018-08-07T10:01:44.189Z,6324
2018-08-07T10:02:44.185Z,6308
2018-08-07T10:03:44.195Z,6284
2018-08-07T10:04:44.207Z,6260
2018-08-07T10:05:44.145Z,6252
2018-08-07T10:06:43.962Z,6244
2018-08-07T10:07:43.965Z,6232
2018-08-07T10:08:44.221Z,6228
2018-08-07T10:09:43.986Z,6224
2018-08-07T10:10:44.242Z,6212
2018-08-07T10:11:44.240Z,6204
2018-08-07T10:12:44.115Z,6188
2018-08-07T10:13:44.016Z,6176
2018-08-07T10:14:44.010Z,6168
2018-08-07T10:15:44.269Z,6156
2018-08-07T10:16:44.020Z,6144
2018-08-07T10:17:44.330Z,6128
2018-08-07T10:18:43.780Z,6108
2018-08-07T10:19:44.291Z,6084
2018-08-07T10:20:43.790Z,6056
2018-08-07T10:21:44.085Z,6032
2018-08-07T10:22:44.306Z,6008
2018-08-07T10:23:44.339Z,5988
2018-08-07T10:24:44.321Z,5964
2018-08-07T10:25:44.328Z,5952
2018-08-07T10:26:44.337Z,5932
2018-08-07T10:27:44.089Z,5904
2018-08-07T10:28:44.344Z,5868
2018-08-07T10:29:43.845Z,5840
2018-08-07T10:30:44.707Z,5808
2018-08-07T10:31:44.128Z,5788
2018-08-07T10:32:44.368Z,5764
2018-08-07T10:33:44.122Z,5740
2018-08-07T10:34:44.381Z,5716
2018-08-07T10:35:44.385Z,5700
2018-08-07T10:36:44.190Z,5680
2018-08-07T10:37:44.146Z,5664
2018-08-07T10:38:44.401Z,5640
2018-08-07T10:39:44.155Z,5616
2018-08-07T10:40:44.977Z,5600
2018-08-07T10:41:44.422Z,5576
2018-08-07T10:42:44.425Z,5552
2018-08-07T10:43:45.266Z,5528
2018-08-07T10:44:44.438Z,5512
2018-08-07T10:45:44.446Z,5500
2018-08-07T10:46:44.455Z,5488
2018-08-07T10:47:44.680Z,5472
2018-08-07T10:48:44.211Z,5460
2018-08-07T10:49:44.217Z,5444
2018-08-07T10:50:44.651Z,5436
2018-08-07T10:51:44.237Z,5436
2018-08-07T10:52:44.488Z,5416
2018-08-07T10:53:44.242Z,5412
2018-08-07T10:54:44.252Z,5408
2018-08-07T10:55:44.257Z,5408
2018-08-07T10:56:44.433Z,5404
2018-08-07T10:57:44.265Z,5400
2018-08-07T10:58:44.529Z,5376
2018-08-07T10:59:44.031Z,5360
2018-08-07T11:00:44.536Z,5348
2018-08-07T11:01:44.591Z,5340
2018-08-07T11:02:44.554Z,5328
2018-08-07T11:03:44.560Z,5320
2018-08-07T11:04:44.559Z,5320
2018-08-07T11:05:44.465Z,5312
2018-08-07T11:06:44.573Z,5308
2018-08-07T11:07:44.592Z,5304
2018-08-07T11:08:44.594Z,5296
2018-08-07T11:09:44.592Z,5284
2018-08-07T11:10:44.352Z,5276
2018-08-07T11:11:44.602Z,5260
2018-08-07T11:12:44.610Z,5256
2018-08-07T11:13:44.800Z,5264
2018-08-07T11:14:44.626Z,5268
2018-08-07T11:15:44.390Z,5260
2018-08-07T11:16:44.649Z,5240
2018-08-07T11:17:44.646Z,5224
2018-08-07T11:18:44.650Z,5216
2018-08-07T11:19:44.656Z,5228
2018-08-07T11:20:44.422Z,5240
2018-08-07T11:21:44.670Z,5244
2018-08-07T11:22:44.677Z,5236
2018-08-07T11:23:44.681Z,5236
2018-08-07T11:24:44.892Z,5236
2018-08-07T11:25:44.443Z,5240
2018-08-07T11:26:44.700Z,5240
2018-08-07T11:27:44.705Z,5232
2018-08-07T11:28:44.717Z,5220
2018-08-07T11:29:44.730Z,5212
2018-08-07T11:30:44.479Z,5200
2018-08-07T11:31:44.732Z,5188
2018-08-07T11:32:44.750Z,5172
2018-08-07T11:33:44.501Z,5156
2018-08-07T11:34:44.751Z,5144
2018-08-07T11:35:44.760Z,5136
2018-08-07T11:36:44.516Z,5132
2018-08-07T11:37:44.520Z,5148
2018-08-07T11:38:44.274Z,5168
2018-08-07T11:39:44.787Z,5184
2018-08-07T11:40:44.793Z,5192
2018-08-07T11:41:44.548Z,5212
2018-08-07T11:42:44.808Z,5236
2018-08-07T11:43:44.817Z,5272
2018-08-07T11:44:44.825Z,5304
2018-08-07T11:45:44.832Z,5320
2018-08-07T11:46:44.830Z,5336
2018-08-07T11:47:44.887Z,5352
2018-08-07T11:48:44.846Z,5356
2018-08-07T11:49:44.849Z,5380
2018-08-07T11:50:44.605Z,5404
2018-08-07T11:51:44.861Z,5428
2018-08-07T11:52:44.626Z,5444
2018-08-07T11:53:44.876Z,5464
2018-08-07T11:54:44.886Z,5484
2018-08-07T11:55:44.634Z,5516
2018-08-07T11:56:44.892Z,5560
2018-08-07T11:57:44.398Z,5596
2018-08-07T11:58:44.907Z,5624
2018-08-07T11:59:44.920Z,5672
2018-08-07T12:00:44.672Z,5712
2018-08-07T12:01:44.693Z,5764
2018-08-07T12:02:44.938Z,5804
2018-08-07T12:03:44.941Z,5824
2018-08-07T12:04:44.947Z,5848
2018-08-07T12:05:44.705Z,5896
2018-08-07T12:06:44.964Z,5948
2018-08-07T12:07:44.965Z,6000
2018-08-07T12:08:44.977Z,6036
2018-08-07T12:09:45.022Z,6048
2018-08-07T12:10:44.993Z,6040
2018-08-07T12:11:44.993Z,6044
2018-08-07T12:12:44.999Z,6052
2018-08-07T12:13:45.008Z,6072
2018-08-07T12:14:44.766Z,6092
2018-08-07T12:15:45.019Z,6104
2018-08-07T12:16:45.032Z,6132
2018-08-07T12:17:44.781Z,6144
2018-08-07T12:18:44.794Z,6172
2018-08-07T12:19:45.052Z,6184
2018-08-07T12:20:45.064Z,6200
2018-08-07T12:21:45.027Z,6208
2018-08-07T12:22:45.095Z,6356
2018-08-07T12:23:45.076Z,6464
2018-08-07T12:24:45.129Z,6472
2018-08-07T12:25:44.838Z,6360
2018-08-07T12:26:45.096Z,6280
2018-08-07T12:27:45.097Z,6172
2018-08-07T12:28:45.113Z,6116
2018-08-07T12:29:44.870Z,6084
2018-08-07T12:30:45.130Z,6064
2018-08-07T12:31:45.135Z,6048
2018-08-07T12:32:45.144Z,6028
2018-08-07T12:33:45.144Z,6004
2018-08-07T12:34:45.151Z,6000
2018-08-07T12:35:45.161Z,6004
2018-08-07T12:36:45.167Z,6016
2018-08-07T12:37:45.176Z,6028
2018-08-07T12:38:44.931Z,6032
2018-08-07T12:39:44.940Z,6044
2018-08-07T12:40:44.942Z,6084
2018-08-07T12:41:44.954Z,6064
2018-08-07T12:42:44.956Z,6072
2018-08-07T12:43:45.219Z,6084
2018-08-07T12:44:45.223Z,6108
2018-08-07T12:45:45.230Z,6120
2018-08-07T12:46:45.092Z,6124
2018-08-07T12:47:44.994Z,6116
2018-08-07T12:48:45.256Z,6100
2018-08-07T12:49:45.260Z,6104
2018-08-07T12:50:45.013Z,6172
2018-08-07T12:51:44.770Z,6184
2018-08-07T12:52:45.289Z,6156
2018-08-07T12:53:45.037Z,6208
2018-08-07T12:54:45.301Z,6440
2018-08-07T12:55:45.309Z,6712
2018-08-07T12:56:45.313Z,7124
2018-08-07T12:57:45.337Z,7248
2018-08-07T12:58:45.071Z,7060
2018-08-07T12:59:45.332Z,7012
2018-08-07T13:00:45.336Z,7048
2018-08-07T13:01:45.102Z,7232
2018-08-07T13:02:45.101Z,7128
2018-08-07T13:03:45.112Z,7132
2018-08-07T13:04:45.372Z,6920
2018-08-07T13:05:45.382Z,6556
2018-08-07T13:06:45.234Z,6384
2018-08-07T13:07:44.889Z,6236
2018-08-07T13:08:45.393Z,6236
2018-08-07T13:09:45.400Z,6348
2018-08-07T13:10:45.178Z,6420
2018-08-07T13:11:45.181Z,6468
2018-08-07T13:12:45.172Z,6724
2018-08-07T13:13:45.431Z,6880
2018-08-07T13:14:45.186Z,7432
2018-08-07T13:15:45.196Z,7680
2018-08-07T13:16:45.202Z,7132
2018-08-07T13:17:45.817Z,6988
2018-08-07T13:18:45.220Z,7048
2018-08-07T13:19:44.976Z,7012
2018-08-07T13:20:45.480Z,6836
2018-08-07T13:21:44.994Z,6776
2018-08-07T13:22:45.506Z,6760
2018-08-07T13:23:45.531Z,6732
2018-08-07T13:24:45.008Z,6712
2018-08-07T13:25:45.660Z,6824
2018-08-07T13:26:45.280Z,7156
2018-08-07T13:27:45.531Z,7592
2018-08-07T13:28:45.291Z,8012
2018-08-07T13:29:45.296Z,8376
2018-08-07T13:30:45.561Z,8612
2018-08-07T13:31:45.565Z,8216
2018-08-07T13:32:45.318Z,7556
2018-08-07T13:33:45.579Z,7028
2018-08-07T13:34:45.331Z,6760
2018-08-07T13:35:45.347Z,6736
2018-08-07T13:36:45.604Z,6720
2018-08-07T13:37:45.607Z,6680
2018-08-07T13:38:45.620Z,6764
2018-08-07T13:39:45.622Z,6908
2018-08-07T13:40:45.630Z,7016
2018-08-07T13:41:45.656Z,7112
2018-08-07T13:42:45.646Z,7188
2018-08-07T13:43:45.662Z,7296
2018-08-07T13:44:45.664Z,7268
2018-08-07T13:45:45.170Z,7192
2018-08-07T13:46:45.674Z,7116
2018-08-07T13:47:45.691Z,6952
2018-08-07T13:48:45.465Z,6768
2018-08-07T13:49:45.997Z,6572
2018-08-07T13:50:45.711Z,6232
2018-08-07T13:51:45.719Z,6040
2018-08-07T13:52:45.727Z,5908
2018-08-07T13:53:45.734Z,5816
2018-08-07T13:54:45.737Z,5820
2018-08-07T13:55:45.752Z,5996
2018-08-07T13:56:45.754Z,5872
2018-08-07T13:57:45.517Z,5836
2018-08-07T13:58:45.522Z,5800
2018-08-07T13:59:45.779Z,5760
2018-08-07T14:00:45.786Z,5640